Terminal Aerodrome Forecast
Issued by NWS Billings, MT

Home | Current Version | Previous Version | Text Only | Print | Product List | Glossary Off
Versions: 1 2 3 4 5 6 7 8 9 10 11 12 13 14

000
FTUS45 KBYZ 181123
TAFMLS
TAF
KMLS 181123Z 1812/1912 13008KT P6SM FEW120
     FM181700 29012KT P6SM VCSH BKN080
     FM182100 31017KT P6SM SCT080=

USA.gov is the U.S. government's official web portal to all federal, state and local government web resources and services.